createdAt,value
2023-03-16T00:00:28.791Z,101714.97
2023-03-16T00:01:05.880Z,101712.47
2023-03-16T00:01:37.469Z,101705.81
2023-03-16T00:02:10.427Z,101716.88
2023-03-16T00:02:42.872Z,101711.34
2023-03-16T00:03:19.481Z,101715.50
2023-03-16T00:03:51.124Z,101705.56
2023-03-16T00:04:22.682Z,101712.59
2023-03-16T00:04:55.512Z,101715.22
2023-03-16T00:05:29.758Z,101709.97
2023-03-16T00:06:01.316Z,101705.81
2023-03-16T00:06:32.867Z,101706.94
2023-03-16T00:07:14.500Z,101709.97
2023-03-16T00:07:46.083Z,101703.63
2023-03-16T00:08:17.905Z,101707.06
2023-03-16T00:08:49.681Z,101706.09
2023-03-16T00:09:21.278Z,101700.69
2023-03-16T00:09:52.855Z,101698.03
2023-03-16T00:10:27.442Z,101705.09
2023-03-16T00:10:59.329Z,101699.16
2023-03-16T00:11:31.006Z,101696.94
2023-03-16T00:12:03.422Z,101701.38
2023-03-16T00:12:34.973Z,101701.69
2023-03-16T00:13:08.812Z,101698.34
2023-03-16T00:13:42.874Z,101699.44
2023-03-16T00:14:14.445Z,101703.00
2023-03-16T00:14:47.454Z,101699.69
2023-03-16T00:15:19.102Z,101698.59
2023-03-16T00:15:56.246Z,101701.06
2023-03-16T00:16:27.865Z,101699.13
2023-03-16T00:16:59.414Z,101698.00
2023-03-16T00:17:31.192Z,101701.31
2023-03-16T00:18:03.513Z,101703.16
2023-03-16T00:18:38.890Z,101703.28
2023-03-16T00:19:10.988Z,101706.72
2023-03-16T00:19:46.887Z,101695.53
2023-03-16T00:20:18.840Z,101707.16
2023-03-16T00:20:52.155Z,101702.47
2023-03-16T00:21:23.682Z,101701.94
2023-03-16T00:21:55.247Z,101716.16
2023-03-16T00:22:28.705Z,101698.00
2023-03-16T00:23:02.888Z,101710.19
2023-03-16T00:23:38.111Z,101700.63
2023-03-16T00:24:10.056Z,101703.22
2023-03-16T00:24:43.258Z,101704.38
2023-03-16T00:25:17.084Z,101706.47
2023-03-16T00:25:48.935Z,101698.81
2023-03-16T00:26:20.472Z,101714.63
2023-03-16T00:26:54.899Z,101720.66
2023-03-16T00:27:27.245Z,101705.47
2023-03-16T00:27:58.906Z,101711.31
2023-03-16T00:28:35.162Z,101712.41
2023-03-16T00:29:06.768Z,101714.91
2023-03-16T00:29:38.308Z,101719.19
2023-03-16T00:30:11.678Z,101711.00
2023-03-16T00:30:47.540Z,101717.25
2023-03-16T00:31:20.447Z,101717.09
2023-03-16T00:31:52.342Z,101718.25
2023-03-16T00:32:25.005Z,101719.34
2023-03-16T00:32:56.669Z,101716.84
2023-03-16T00:33:29.070Z,101722.78
2023-03-16T00:34:02.784Z,101716.84
2023-03-16T00:34:34.928Z,101713.25
2023-03-16T00:35:09.400Z,101723.47
2023-03-16T00:35:49.802Z,101716.72
2023-03-16T00:36:22.722Z,101717.56
2023-03-16T00:36:55.209Z,101725.16
2023-03-16T00:37:27.257Z,101726.25
2023-03-16T00:37:58.822Z,101725.44
2023-03-16T00:38:34.957Z,101719.00
2023-03-16T00:39:06.971Z,101720.72
2023-03-16T00:39:38.763Z,101718.50
2023-03-16T00:40:12.599Z,101714.06
2023-03-16T00:40:44.579Z,101719.72
2023-03-16T00:41:18.402Z,101715.31
2023-03-16T00:41:51.055Z,101715.19
2023-03-16T00:42:27.691Z,101708.31
2023-03-16T00:42:59.287Z,101707.34
2023-03-16T00:43:32.504Z,101700.53
2023-03-16T00:44:05.309Z,101703.13
2023-03-16T00:44:37.565Z,101697.47
2023-03-16T00:45:10.083Z,101700.78
2023-03-16T00:45:44.990Z,101698.00
2023-03-16T00:46:17.795Z,101694.00
2023-03-16T00:46:49.417Z,101694.72
2023-03-16T00:47:21.570Z,101690.03
2023-03-16T00:47:54.242Z,101693.38
2023-03-16T00:48:25.853Z,101694.47
2023-03-16T00:48:57.535Z,101690.31
2023-03-16T00:49:29.118Z,101692.53
2023-03-16T00:50:01.412Z,101689.16
2023-03-16T00:50:33.273Z,101691.06
2023-03-16T00:51:06.954Z,101690.25
2023-03-16T00:51:38.546Z,101689.16
2023-03-16T00:52:14.638Z,101685.50
2023-03-16T00:52:46.252Z,101686.09
2023-03-16T00:53:17.762Z,101686.38
2023-03-16T00:53:49.803Z,101690.66
2023-03-16T00:54:22.270Z,101684.97
2023-03-16T00:54:55.363Z,101684.44
2023-03-16T00:55:27.094Z,101687.25
2023-03-16T00:55:58.661Z,101679.34
2023-03-16T00:56:30.211Z,101670.88
2023-03-16T00:57:02.354Z,101681.25
2023-03-16T00:57:34.349Z,101677.41
2023-03-16T00:58:05.968Z,101673.38
2023-03-16T00:58:39.423Z,101672.53
2023-03-16T00:59:12.987Z,101666.03
2023-03-16T00:59:48.028Z,101663.38
2023-03-16T01:00:21.225Z,101671.19
2023-03-16T01:00:54.284Z,101669.38
2023-03-16T01:01:27.459Z,101666.88
2023-03-16T01:01:59.351Z,101662.72
2023-03-16T01:02:30.885Z,101658.97
2023-03-16T01:03:02.529Z,101668.34
2023-03-16T01:03:34.879Z,101655.41
2023-03-16T01:04:06.494Z,101660.75
2023-03-16T01:04:41.291Z,101665.34
2023-03-16T01:05:13.878Z,101665.34
2023-03-16T01:05:45.627Z,101661.94
2023-03-16T01:06:20.521Z,101650.88
2023-03-16T01:06:52.820Z,101661.84
2023-03-16T01:07:24.381Z,101663.03
2023-03-16T01:07:56.115Z,101660.84
2023-03-16T01:08:30.645Z,101667.28
2023-03-16T01:09:05.389Z,101663.38
2023-03-16T01:09:37.276Z,101657.09
2023-03-16T01:10:09.764Z,101657.22
2023-03-16T01:10:41.299Z,101656.94
2023-03-16T01:11:18.554Z,101658.53
2023-03-16T01:11:53.756Z,101649.69
2023-03-16T01:12:25.332Z,101653.31
2023-03-16T01:12:56.868Z,101656.47
2023-03-16T01:13:28.498Z,101656.03
2023-03-16T01:14:00.286Z,101657.06
2023-03-16T01:14:33.244Z,101654.78
2023-03-16T01:15:05.615Z,101659.19
2023-03-16T01:15:37.498Z,101662.03
2023-03-16T01:16:09.773Z,101658.81
2023-03-16T01:16:41.445Z,101661.47
2023-03-16T01:17:14.633Z,101658.91
2023-03-16T01:17:47.343Z,101649.56
2023-03-16T01:18:20.347Z,101659.38
2023-03-16T01:18:56.180Z,101655.69
2023-03-16T01:19:28.065Z,101662.81
2023-03-16T01:19:59.610Z,101660.38
2023-03-16T01:20:33.539Z,101657.84
2023-03-16T01:21:08.958Z,101655.31
2023-03-16T01:21:42.396Z,101653.41
2023-03-16T01:22:17.348Z,101656.97
2023-03-16T01:22:48.897Z,101665.81
2023-03-16T01:23:21.254Z,101653.25
2023-03-16T01:23:53.875Z,101647.59
2023-03-16T01:24:25.514Z,101656.72
2023-03-16T01:24:57.074Z,101653.00
2023-03-16T01:25:28.614Z,101651.31
2023-03-16T01:26:00.688Z,101644.00
2023-03-16T01:26:32.782Z,101649.16
2023-03-16T01:27:05.582Z,101647.31
2023-03-16T01:27:37.938Z,101641.38
2023-03-16T01:28:10.404Z,101642.56
2023-03-16T01:28:42.025Z,101643.03
2023-03-16T01:29:13.555Z,101642.44
2023-03-16T01:29:45.357Z,101637.88
2023-03-16T01:30:17.054Z,101634.75
2023-03-16T01:30:48.749Z,101630.75
2023-03-16T01:31:20.366Z,101629.94
2023-03-16T01:31:51.996Z,101633.88
2023-03-16T01:32:24.006Z,101628.47
2023-03-16T01:32:55.875Z,101637.78
2023-03-16T01:33:28.157Z,101632.06
2023-03-16T01:34:00.961Z,101635.44
2023-03-16T01:34:35.148Z,101632.13
2023-03-16T01:35:07.995Z,101633.47
2023-03-16T01:35:39.781Z,101638.44
2023-03-16T01:36:14.350Z,101630.28
2023-03-16T01:37:06.711Z,101635.97
2023-03-16T01:37:57.340Z,101628.75
2023-03-16T01:38:31.184Z,101635.72
2023-03-16T01:39:03.247Z,101640.69
2023-03-16T01:39:45.778Z,101637.09
2023-03-16T01:40:19.059Z,101624.53
2023-03-16T01:40:52.011Z,101627.59
2023-03-16T01:41:23.624Z,101629.41
2023-03-16T01:41:55.605Z,101628.81
2023-03-16T01:42:27.184Z,101621.06
2023-03-16T01:43:02.338Z,101623.56
2023-03-16T01:43:38.426Z,101623.25
2023-03-16T01:44:15.952Z,101620.03
2023-03-16T01:44:54.434Z,101622.66
2023-03-16T01:46:04.374Z,101614.19
2023-03-16T01:46:38.650Z,101609.91
2023-03-16T01:47:12.245Z,101607.66
2023-03-16T01:47:43.837Z,101611.00
2023-03-16T01:48:19.895Z,101615.56
2023-03-16T01:49:00.652Z,101603.22
2023-03-16T01:49:36.882Z,101606.81
2023-03-16T01:50:10.136Z,101606.38
2023-03-16T01:50:44.611Z,101605.16
2023-03-16T01:51:21.429Z,101600.28
2023-03-16T01:52:03.267Z,101613.22
2023-03-16T01:52:37.890Z,101614.09
2023-03-16T01:53:09.979Z,101613.72
2023-03-16T01:53:44.752Z,101612.06
2023-03-16T01:54:23.970Z,101613.03
2023-03-16T01:55:02.123Z,101615.28
2023-03-16T01:55:33.754Z,101618.16
2023-03-16T01:56:08.399Z,101614.84
2023-03-16T01:56:45.829Z,101608.06
2023-03-16T01:57:20.273Z,101615.66
2023-03-16T01:57:51.805Z,101610.28
2023-03-16T01:58:23.525Z,101618.59
2023-03-16T01:58:58.782Z,101608.59
2023-03-16T01:59:40.271Z,101611.84
2023-03-16T02:00:19.619Z,101613.81
2023-03-16T02:01:07.104Z,101611.38
2023-03-16T02:01:38.949Z,101613.28
2023-03-16T02:02:11.350Z,101620.19
2023-03-16T02:02:45.021Z,101612.34
2023-03-16T02:03:25.258Z,101609.72
2023-03-16T02:04:30.088Z,101614.69
2023-03-16T02:05:09.968Z,101607.88
2023-03-16T02:05:44.739Z,101613.03
2023-03-16T02:06:20.497Z,101611.41
2023-03-16T02:06:57.919Z,101608.00
2023-03-16T02:07:32.385Z,101611.09
2023-03-16T02:08:05.872Z,101612.75
2023-03-16T02:08:39.159Z,101612.66
2023-03-16T02:09:11.678Z,101609.59
2023-03-16T02:09:47.963Z,101615.38
2023-03-16T02:10:20.368Z,101616.34
2023-03-16T02:10:54.752Z,101615.38
2023-03-16T02:11:28.383Z,101609.97
2023-03-16T02:12:08.195Z,101609.44
2023-03-16T02:12:44.670Z,101606.81
2023-03-16T02:13:16.288Z,101604.59
2023-03-16T02:13:49.078Z,101598.38
2023-03-16T02:14:20.873Z,101603.63
2023-03-16T02:14:52.653Z,101602.81
2023-03-16T02:15:24.839Z,101605.78
2023-03-16T02:15:56.869Z,101600.56
2023-03-16T02:16:28.683Z,101599.22
2023-03-16T02:17:00.679Z,101600.56
2023-03-16T02:17:34.441Z,101592.69
2023-03-16T02:18:11.133Z,101599.88
2023-03-16T02:18:43.485Z,101598.38
2023-03-16T02:19:23.685Z,101600.41
2023-03-16T02:20:16.516Z,101599.00
2023-03-16T02:20:48.050Z,101600.38
2023-03-16T02:21:39.582Z,101593.66
2023-03-16T02:22:14.022Z,101595.59
2023-03-16T02:22:48.462Z,101608.06
2023-03-16T02:23:22.050Z,101599.22
2023-03-16T02:23:54.328Z,101591.31
2023-03-16T02:24:26.133Z,101601.00
2023-03-16T02:24:57.806Z,101593.34
2023-03-16T02:25:42.022Z,101593.84
2023-03-16T02:26:34.528Z,101593.88
2023-03-16T02:27:10.372Z,101600.81
2023-03-16T02:28:15.812Z,101595.53
2023-03-16T02:29:19.390Z,101589.84
2023-03-16T02:30:11.680Z,101591.78
2023-03-16T02:30:53.264Z,101591.41
2023-03-16T02:31:25.554Z,101585.56
2023-03-16T02:31:58.263Z,101589.47
2023-03-16T02:32:30.916Z,101592.53
2023-03-16T02:33:05.033Z,101586.72
2023-03-16T02:33:36.964Z,101587.41
2023-03-16T02:34:09.818Z,101589.41
2023-03-16T02:34:42.235Z,101584.19
2023-03-16T02:35:14.459Z,101588.03
2023-03-16T02:35:46.387Z,101586.50
2023-03-16T02:36:19.448Z,101589.84
2023-03-16T02:36:53.086Z,101580.66
2023-03-16T02:37:28.595Z,101577.75
2023-03-16T02:38:00.349Z,101582.16
2023-03-16T02:38:35.635Z,101581.47
2023-03-16T02:39:07.238Z,101579.44
2023-03-16T02:39:47.638Z,101583.91
2023-03-16T02:40:27.289Z,101588.56
2023-03-16T02:41:13.283Z,101585.13
2023-03-16T02:41:46.043Z,101579.13
2023-03-16T02:42:21.802Z,101582.78
2023-03-16T02:43:06.482Z,101572.22
2023-03-16T02:43:52.292Z,101578.63
2023-03-16T02:44:35.267Z,101573.19
2023-03-16T02:45:09.630Z,101574.50
2023-03-16T02:45:45.709Z,101571.19
2023-03-16T02:46:18.155Z,101569.53
2023-03-16T02:46:50.066Z,101572.41
2023-03-16T02:47:31.088Z,101566.00
2023-03-16T02:48:03.753Z,101559.50
2023-03-16T02:48:42.803Z,101558.81
2023-03-16T02:49:20.682Z,101566.66
2023-03-16T02:49:52.310Z,101554.50
2023-03-16T02:50:23.910Z,101560.03
2023-03-16T02:50:55.685Z,101559.75
2023-03-16T02:51:27.653Z,101560.63
2023-03-16T02:51:59.596Z,101557.31
2023-03-16T02:52:31.213Z,101556.03
2023-03-16T02:53:02.789Z,101554.78
2023-03-16T02:53:34.369Z,101562.22
2023-03-16T02:54:07.246Z,101561.44
2023-03-16T02:54:39.785Z,101572.25
2023-03-16T02:55:11.319Z,101567.22
2023-03-16T02:55:43.480Z,101561.97
2023-03-16T02:56:15.068Z,101561.75
2023-03-16T02:56:46.830Z,101562.47
2023-03-16T02:57:19.020Z,101565.94
2023-03-16T02:57:52.261Z,101561.50
2023-03-16T02:58:24.348Z,101561.50
2023-03-16T02:58:57.418Z,101555.41
2023-03-16T02:59:30.146Z,101553.41
2023-03-16T03:00:02.127Z,101553.84
2023-03-16T03:00:35.026Z,101546.78
2023-03-16T03:01:06.789Z,101552.00
2023-03-16T03:01:39.592Z,101553.81
2023-03-16T03:02:11.476Z,101545.25
2023-03-16T03:02:43.602Z,101547.72
2023-03-16T03:03:17.022Z,101548.63
2023-03-16T03:03:48.679Z,101542.88
2023-03-16T03:04:23.416Z,101551.44
2023-03-16T03:04:54.964Z,101548.94
2023-03-16T03:05:28.204Z,101543.00
2023-03-16T03:06:00.439Z,101543.31
2023-03-16T03:06:32.672Z,101539.22
2023-03-16T03:07:05.458Z,101542.63
2023-03-16T03:07:48.562Z,101540.66
2023-03-16T03:08:22.833Z,101538.28
2023-03-16T03:08:54.552Z,101539.09
2023-03-16T03:09:26.184Z,101540.66
2023-03-16T03:09:58.800Z,101537.13
2023-03-16T03:10:31.129Z,101538.94
2023-03-16T03:11:02.792Z,101540.06
2023-03-16T03:11:34.386Z,101538.41
2023-03-16T03:12:06.276Z,101535.41
2023-03-16T03:12:38.048Z,101539.16
2023-03-16T03:13:12.450Z,101540.34
2023-03-16T03:13:46.452Z,101548.03
2023-03-16T03:14:22.743Z,101542.00
2023-03-16T03:14:57.247Z,101547.28
2023-03-16T03:15:29.197Z,101537.19
2023-03-16T03:16:12.697Z,101536.53
2023-03-16T03:16:46.896Z,101537.63
2023-03-16T03:17:20.413Z,101537.63
2023-03-16T03:17:52.417Z,101535.97
2023-03-16T03:18:25.310Z,101533.16
2023-03-16T03:18:58.581Z,101540.06
2023-03-16T03:19:33.775Z,101535.09
2023-03-16T03:20:16.978Z,101533.44
2023-03-16T03:20:48.674Z,101534.72
2023-03-16T03:21:21.955Z,101532.84
2023-03-16T03:21:56.754Z,101532.25
2023-03-16T03:22:28.611Z,101529.97
2023-03-16T03:23:00.509Z,101528.94
2023-03-16T03:23:32.101Z,101531.63
2023-03-16T03:24:05.447Z,101531.94
2023-03-16T03:24:39.002Z,101534.13
2023-03-16T03:25:11.792Z,101538.41
2023-03-16T03:25:43.446Z,101532.47
2023-03-16T03:26:15.951Z,101536.59
2023-03-16T03:26:48.770Z,101534.41
2023-03-16T03:27:24.671Z,101535.31
2023-03-16T03:27:58.087Z,101530.22
2023-03-16T03:28:30.608Z,101530.28
2023-03-16T03:29:02.427Z,101529.53
2023-03-16T03:29:37.044Z,101533.66
2023-03-16T03:30:10.830Z,101533.28
2023-03-16T03:30:42.478Z,101532.00
2023-03-16T03:31:16.162Z,101528.63
2023-03-16T03:31:47.757Z,101536.16
2023-03-16T03:32:19.408Z,101537.72
2023-03-16T03:32:52.520Z,101535.91
2023-03-16T03:33:25.496Z,101524.88
2023-03-16T03:33:57.052Z,101529.56
2023-03-16T03:34:29.386Z,101535.81
2023-03-16T03:35:02.896Z,101531.50
2023-03-16T03:35:34.505Z,101540.41
2023-03-16T03:36:06.383Z,101528.22
2023-03-16T03:36:41.497Z,101536.63
2023-03-16T03:37:13.156Z,101527.06
2023-03-16T03:37:46.459Z,101526.59
2023-03-16T03:38:19.500Z,101517.66
2023-03-16T03:38:51.197Z,101520.00
2023-03-16T03:39:24.762Z,101511.50
2023-03-16T03:39:56.777Z,101527.88
2023-03-16T03:40:28.658Z,101515.72
2023-03-16T03:41:04.091Z,101523.97
2023-03-16T03:41:38.469Z,101525.03
2023-03-16T03:42:11.982Z,101519.47
2023-03-16T03:42:43.646Z,101521.63
2023-03-16T03:43:15.936Z,101515.84
2023-03-16T03:43:49.435Z,101514.19
2023-03-16T03:44:23.128Z,101525.41
2023-03-16T03:44:54.698Z,101513.38
2023-03-16T03:45:26.547Z,101515.25
2023-03-16T03:45:59.501Z,101517.06
2023-03-16T03:46:31.324Z,101515.53
2023-03-16T03:47:03.305Z,101516.94
2023-03-16T03:47:35.629Z,101512.25
2023-03-16T03:48:09.160Z,101513.75
2023-03-16T03:48:41.062Z,101518.19
2023-03-16T03:49:12.632Z,101513.75
2023-03-16T03:49:44.246Z,101512.63
2023-03-16T03:50:16.068Z,101512.91
2023-03-16T03:51:04.112Z,101506.97
2023-03-16T03:51:51.329Z,101512.09
2023-03-16T03:52:28.741Z,101513.22
2023-03-16T03:53:00.517Z,101515.53
2023-03-16T03:53:34.915Z,101510.00
2023-03-16T03:54:29.338Z,101516.75
2023-03-16T03:55:02.842Z,101515.53
2023-03-16T03:55:35.046Z,101517.50
2023-03-16T03:56:07.148Z,101506.81
2023-03-16T03:56:38.811Z,101505.41
2023-03-16T03:57:14.848Z,101508.78
2023-03-16T03:57:46.749Z,101513.16
2023-03-16T03:58:18.691Z,101509.19
2023-03-16T03:58:50.335Z,101511.09
2023-03-16T03:59:31.273Z,101510.06
2023-03-16T04:00:13.727Z,101507.22
2023-03-16T04:00:45.929Z,101508.56
2023-03-16T04:01:17.761Z,101507.88
2023-03-16T04:01:49.475Z,101510.28
2023-03-16T04:02:21.436Z,101506.22
2023-03-16T04:02:57.218Z,101518.88
2023-03-16T04:03:35.760Z,101510.88
2023-03-16T04:04:07.355Z,101510.44
2023-03-16T04:04:39.970Z,101514.56
2023-03-16T04:05:13.924Z,101518.06
2023-03-16T04:05:45.489Z,101521.72
2023-03-16T04:06:17.528Z,101508.72
2023-03-16T04:06:51.578Z,101524.41
2023-03-16T04:07:23.185Z,101518.88
2023-03-16T04:07:59.024Z,101519.75
2023-03-16T04:08:30.570Z,101518.72
2023-03-16T04:09:02.271Z,101518.47
2023-03-16T04:09:34.718Z,101522.19
2023-03-16T04:10:07.934Z,101512.00
2023-03-16T04:10:43.505Z,101510.81
2023-03-16T04:11:15.048Z,101518.03
2023-03-16T04:11:46.631Z,101521.41
2023-03-16T04:12:18.331Z,101509.91
2023-03-16T04:12:50.223Z,101513.81
2023-03-16T04:13:21.786Z,101516.25
2023-03-16T04:13:54.098Z,101509.56
2023-03-16T04:14:25.670Z,101509.72
2023-03-16T04:14:57.451Z,101506.75
2023-03-16T04:15:32.919Z,101510.75
2023-03-16T04:16:34.135Z,101515.53
2023-03-16T04:17:06.208Z,101522.41
2023-03-16T04:17:40.397Z,101513.53
2023-03-16T04:18:14.487Z,101521.41
2023-03-16T04:18:47.063Z,101523.38
2023-03-16T04:19:18.613Z,101525.19
2023-03-16T04:19:50.394Z,101515.53
2023-03-16T04:20:23.566Z,101526.69
2023-03-16T04:20:55.550Z,101525.03
2023-03-16T04:21:28.908Z,101520.81
2023-03-16T04:22:00.519Z,101519.75
2023-03-16T04:22:32.214Z,101523.38
2023-03-16T04:23:05.013Z,101523.66
2023-03-16T04:23:37.001Z,101526.31
2023-03-16T04:24:08.628Z,101519.16
2023-03-16T04:24:43.210Z,101521.19
2023-03-16T04:25:17.515Z,101517.66
2023-03-16T04:25:49.990Z,101515.28
2023-03-16T04:26:25.595Z,101526.78
2023-03-16T04:26:58.212Z,101516.63
2023-03-16T04:27:29.754Z,101516.53
2023-03-16T04:28:02.238Z,101517.81
2023-03-16T04:28:36.760Z,101513.53
2023-03-16T04:29:08.354Z,101512.53
2023-03-16T04:29:40.665Z,101514.13
2023-03-16T04:30:14.389Z,101517.50
2023-03-16T04:30:51.070Z,101505.13
2023-03-16T04:31:31.436Z,101516.78
2023-03-16T04:32:03.534Z,101510.59
2023-03-16T04:32:36.018Z,101503.97
2023-03-16T04:33:07.765Z,101504.19
2023-03-16T04:33:39.920Z,101511.94
2023-03-16T04:34:12.929Z,101504.50
2023-03-16T04:34:44.557Z,101504.19
2023-03-16T04:35:19.315Z,101507.13
2023-03-16T04:35:58.118Z,101501.72
2023-03-16T04:36:30.287Z,101501.13
2023-03-16T04:37:02.469Z,101508.94
2023-03-16T04:37:35.289Z,101513.75
2023-03-16T04:38:07.953Z,101506.66
2023-03-16T04:38:46.271Z,101500.38
2023-03-16T04:39:18.878Z,101496.22
2023-03-16T04:39:50.563Z,101504.88
2023-03-16T04:40:22.175Z,101498.09
2023-03-16T04:41:01.791Z,101499.63
2023-03-16T04:41:38.191Z,101493.53
2023-03-16T04:42:21.756Z,101497.66
2023-03-16T04:42:53.421Z,101500.44
2023-03-16T04:43:26.223Z,101501.88
2023-03-16T04:44:01.883Z,101493.31
2023-03-16T04:44:33.454Z,101498.28
2023-03-16T04:45:05.489Z,101495.78
2023-03-16T04:45:37.107Z,101489.28
2023-03-16T04:46:09.357Z,101491.06
2023-03-16T04:46:41.042Z,101489.53
2023-03-16T04:47:16.646Z,101500.44
2023-03-16T04:47:50.106Z,101499.75
2023-03-16T04:48:21.995Z,101494.44
2023-03-16T04:48:54.205Z,101498.28
2023-03-16T04:49:26.610Z,101494.34
2023-03-16T04:49:58.402Z,101489.63
2023-03-16T04:50:31.191Z,101497.66
2023-03-16T04:51:03.935Z,101490.94
2023-03-16T04:51:38.083Z,101488.31
2023-03-16T04:52:13.192Z,101491.66
2023-03-16T04:52:45.639Z,101487.94
2023-03-16T04:53:17.514Z,101479.22
2023-03-16T04:53:49.804Z,101479.84
2023-03-16T04:54:28.505Z,101481.84
2023-03-16T04:55:00.148Z,101479.22
2023-03-16T04:55:31.803Z,101486.44
2023-03-16T04:56:04.285Z,101475.78
2023-03-16T04:56:36.407Z,101479.47
2023-03-16T04:57:12.742Z,101476.69
2023-03-16T04:57:49.275Z,101474.59
2023-03-16T04:58:22.721Z,101475.09
2023-03-16T04:58:56.963Z,101476.44
2023-03-16T04:59:30.517Z,101477.56
2023-03-16T05:00:11.810Z,101471.19
2023-03-16T05:00:55.365Z,101469.22
2023-03-16T05:01:45.353Z,101470.63
2023-03-16T05:02:20.055Z,101476.44
2023-03-16T05:02:52.273Z,101475.72
2023-03-16T05:03:24.125Z,101467.44
2023-03-16T05:03:57.056Z,101471.66
2023-03-16T05:04:29.893Z,101473.09
2023-03-16T05:05:01.568Z,101478.06
2023-03-16T05:05:35.011Z,101476.91
2023-03-16T05:06:07.244Z,101483.59
2023-03-16T05:06:41.309Z,101478.13
2023-03-16T05:07:13.288Z,101478.69
2023-03-16T05:07:50.069Z,101481.28
2023-03-16T05:08:22.629Z,101482.19
2023-03-16T05:08:55.709Z,101476.00
2023-03-16T05:09:27.373Z,101476.63
2023-03-16T05:09:58.949Z,101478.28
2023-03-16T05:10:31.138Z,101477.06
2023-03-16T05:11:02.791Z,101479.00
2023-03-16T05:11:38.260Z,101476.78
2023-03-16T05:12:13.091Z,101468.19
2023-03-16T05:12:45.300Z,101472.09
2023-03-16T05:13:16.872Z,101474.25
2023-03-16T05:13:50.812Z,101471.34
2023-03-16T05:14:22.560Z,101466.69
2023-03-16T05:15:05.215Z,101473.00
2023-03-16T05:15:42.475Z,101471.41
2023-03-16T05:16:22.997Z,101463.22
2023-03-16T05:16:55.400Z,101467.66
2023-03-16T05:17:27.856Z,101458.47
2023-03-16T05:17:59.824Z,101468.28
2023-03-16T05:18:33.234Z,101468.19
2023-03-16T05:19:05.407Z,101467.06
2023-03-16T05:19:39.206Z,101461.72
2023-03-16T05:20:15.429Z,101462.69
2023-03-16T05:20:56.025Z,101457.97
2023-03-16T05:21:34.247Z,101459.09
2023-03-16T05:22:10.296Z,101457.22
2023-03-16T05:22:45.545Z,101459.53
2023-03-16T05:23:22.838Z,101464.56
2023-03-16T05:24:00.053Z,101466.25
2023-03-16T05:24:31.651Z,101468.94
2023-03-16T05:25:05.270Z,101464.03
2023-03-16T05:25:38.102Z,101462.63
2023-03-16T05:26:13.212Z,101471.22
2023-03-16T05:26:45.836Z,101460.53
2023-03-16T05:27:20.477Z,101463.84
2023-03-16T05:27:54.340Z,101469.56
2023-03-16T05:28:42.562Z,101467.59
2023-03-16T05:29:16.825Z,101472.56
2023-03-16T05:29:49.807Z,101463.53
2023-03-16T05:30:21.546Z,101472.84
2023-03-16T05:30:53.300Z,101475.09
2023-03-16T05:31:32.672Z,101475.94
2023-03-16T05:32:06.545Z,101474.41
2023-03-16T05:32:38.404Z,101480.66
2023-03-16T05:33:10.016Z,101475.25
2023-03-16T05:33:41.647Z,101479.31
2023-03-16T05:34:16.585Z,101472.41
2023-03-16T05:34:48.264Z,101466.41
2023-03-16T05:35:19.846Z,101474.66
2023-03-16T05:35:52.331Z,101477.66
2023-03-16T05:36:24.802Z,101481.06
2023-03-16T05:36:59.864Z,101480.16
2023-03-16T05:37:31.451Z,101469.69
2023-03-16T05:38:03.109Z,101475.56
2023-03-16T05:38:39.145Z,101480.44
2023-03-16T05:39:13.429Z,101475.56
2023-03-16T05:39:48.894Z,101475.56
2023-03-16T05:40:22.993Z,101479.19
2023-03-16T05:41:10.380Z,101481.78
2023-03-16T05:41:57.476Z,101486.91
2023-03-16T05:42:34.781Z,101483.31
2023-03-16T05:43:07.118Z,101478.03
2023-03-16T05:43:43.628Z,101476.84
2023-03-16T05:44:15.480Z,101482.94
2023-03-16T05:45:09.417Z,101475.25
2023-03-16T05:45:53.229Z,101480.53
2023-03-16T05:46:24.882Z,101467.53
2023-03-16T05:46:57.531Z,101472.41
2023-03-16T05:47:29.096Z,101474.00
2023-03-16T05:48:02.414Z,101468.88
2023-03-16T05:48:35.740Z,101466.38
2023-03-16T05:49:07.782Z,101465.13
2023-03-16T05:49:39.631Z,101467.44
2023-03-16T05:50:17.154Z,101461.50
2023-03-16T05:50:50.681Z,101461.66
2023-03-16T05:51:26.568Z,101459.53
2023-03-16T05:51:58.494Z,101456.63
2023-03-16T05:52:30.144Z,101459.31
2023-03-16T05:53:04.308Z,101460.06
2023-03-16T05:53:36.182Z,101458.72
2023-03-16T05:54:13.968Z,101459.25
2023-03-16T05:54:49.482Z,101456.00
2023-03-16T05:55:21.187Z,101458.88
2023-03-16T05:55:59.719Z,101450.63
2023-03-16T05:56:31.333Z,101465.56
2023-03-16T05:57:06.792Z,101469.41
2023-03-16T05:57:38.673Z,101466.09
2023-03-16T05:58:11.859Z,101467.81
2023-03-16T05:58:45.709Z,101465.19
2023-03-16T05:59:20.255Z,101472.63
2023-03-16T05:59:57.433Z,101467.28
2023-03-16T06:00:30.215Z,101460.59
2023-03-16T06:01:15.752Z,101465.63
2023-03-16T06:01:50.200Z,101464.81
2023-03-16T06:02:22.097Z,101459.03
2023-03-16T06:02:54.681Z,101463.31
2023-03-16T06:03:28.016Z,101463.69
2023-03-16T06:04:03.174Z,101466.72
2023-03-16T06:04:38.324Z,101457.34
2023-03-16T06:05:10.398Z,101466.00
2023-03-16T06:05:45.177Z,101469.75
2023-03-16T06:06:17.416Z,101461.41
2023-03-16T06:06:59.364Z,101461.41
2023-03-16T06:07:34.134Z,101460.75
2023-03-16T06:08:05.759Z,101460.38
2023-03-16T06:08:37.959Z,101463.53
2023-03-16T06:09:13.776Z,101461.50
2023-03-16T06:09:46.585Z,101464.44
2023-03-16T06:10:21.264Z,101462.91
2023-03-16T06:10:53.248Z,101455.84
2023-03-16T06:11:25.457Z,101467.75
2023-03-16T06:11:57.032Z,101467.06
2023-03-16T06:12:28.701Z,101465.63
2023-03-16T06:13:00.853Z,101459.75
2023-03-16T06:13:32.482Z,101473.38
2023-03-16T06:14:04.318Z,101470.28
2023-03-16T06:14:36.378Z,101471.16
2023-03-16T06:15:09.549Z,101471.25
2023-03-16T06:15:41.724Z,101467.09
2023-03-16T06:16:14.428Z,101474.78
2023-03-16T06:16:46.054Z,101466.38
2023-03-16T06:17:18.796Z,101472.00
2023-03-16T06:17:51.649Z,101478.53
2023-03-16T06:18:23.206Z,101469.31
2023-03-16T06:18:59.138Z,101476.59
2023-03-16T06:19:31.752Z,101480.72
2023-03-16T06:20:11.494Z,101476.59
2023-03-16T06:20:44.274Z,101474.03
2023-03-16T06:21:16.358Z,101477.63
2023-03-16T06:21:48.407Z,101471.31
2023-03-16T06:22:20.162Z,101480.13
2023-03-16T06:22:51.807Z,101477.63
2023-03-16T06:23:23.405Z,101478.91
2023-03-16T06:23:56.071Z,101482.06
2023-03-16T06:24:27.635Z,101482.88
2023-03-16T06:24:59.231Z,101472.97
2023-03-16T06:25:31.231Z,101479.59
2023-03-16T06:26:02.864Z,101471.00
2023-03-16T06:26:36.753Z,101476.28
2023-03-16T06:27:10.052Z,101480.66
2023-03-16T06:27:54.518Z,101481.53
2023-03-16T06:28:26.136Z,101480.41
2023-03-16T06:28:57.764Z,101479.00
2023-03-16T06:29:29.728Z,101475.28
2023-03-16T06:30:01.630Z,101471.47